createdAt,value
2023-03-13T00:00:57.122Z,99414.16
2023-03-13T00:03:26.818Z,99413.13
2023-03-13T00:05:57.245Z,99411.47
2023-03-13T00:08:25.596Z,99410.53
2023-03-13T00:10:53.819Z,99417.31
2023-03-13T00:13:21.753Z,99420.63
2023-03-13T00:15:49.688Z,99422.44
2023-03-13T00:18:17.632Z,99409.34
2023-03-13T00:20:48.892Z,99407.66
2023-03-13T00:23:16.836Z,99403.25
2023-03-13T00:25:44.706Z,99398.31
2023-03-13T00:28:12.672Z,99402.44
2023-03-13T00:30:41.024Z,99410.22
2023-03-13T00:33:09.017Z,99409.19
2023-03-13T00:35:36.996Z,99398.94
2023-03-13T00:38:06.418Z,99400.53
2023-03-13T00:40:34.331Z,99391.81
2023-03-13T00:43:02.314Z,99401.38
2023-03-13T00:45:30.264Z,99396.06
2023-03-13T00:47:58.203Z,99390.72
2023-03-13T00:50:26.129Z,99389.84
2023-03-13T00:52:54.248Z,99380.09
2023-03-13T00:55:23.548Z,99377.53
2023-03-13T00:57:51.693Z,99374.19
2023-03-13T01:00:20.809Z,99376.25
2023-03-13T01:02:48.908Z,99372.03
2023-03-13T01:05:16.939Z,99369.50
2023-03-13T01:07:44.933Z,99375.53
2023-03-13T01:10:12.962Z,99366.09
2023-03-13T01:12:42.278Z,99359.19
2023-03-13T01:15:11.396Z,99358.22
2023-03-13T01:17:39.341Z,99353.78
2023-03-13T01:20:08.964Z,99349.50
2023-03-13T01:22:37.098Z,99341.63
2023-03-13T01:25:05.702Z,99342.34
2023-03-13T01:27:33.607Z,99333.84
2023-03-13T01:30:02.971Z,99343.31
2023-03-13T01:32:30.962Z,99334.56
2023-03-13T01:34:58.908Z,99332.78
2023-03-13T01:37:26.868Z,99330.06
2023-03-13T01:39:54.939Z,99329.16
2023-03-13T01:42:22.923Z,99330.88
2023-03-13T01:44:52.300Z,99312.66
2023-03-13T01:47:21.832Z,99305.69
2023-03-13T01:50:09.287Z,99298.72
2023-03-13T01:52:53.090Z,99291.75
2023-03-13T01:55:28.172Z,99291.56
2023-03-13T01:57:56.619Z,99290.59
2023-03-13T02:00:28.699Z,99287.66
2023-03-13T02:03:00.188Z,99284.97
2023-03-13T02:05:29.312Z,99280.66
2023-03-13T02:08:00.448Z,99291.66
2023-03-13T02:10:30.017Z,99282.31
2023-03-13T02:12:59.196Z,99279.94
2023-03-13T02:16:51.023Z,99282.34
2023-03-13T02:19:34.408Z,99286.94
2023-03-13T02:22:06.907Z,99274.78
2023-03-13T02:24:39.582Z,99273.97
2023-03-13T02:27:09.430Z,99279.28
2023-03-13T02:29:40.451Z,99276.78
2023-03-13T02:32:09.040Z,99263.09
2023-03-13T02:34:39.670Z,99253.91
2023-03-13T02:37:10.909Z,99257.81
2023-03-13T02:39:40.736Z,99258.06
2023-03-13T02:42:10.544Z,99260.38
2023-03-13T02:44:40.812Z,99257.28
2023-03-13T02:47:10.142Z,99253.78
2023-03-13T02:49:38.367Z,99246.94
2023-03-13T02:52:13.040Z,99244.38
2023-03-13T02:54:43.828Z,99241.69
2023-03-13T02:57:13.171Z,99239.81
2023-03-13T02:59:41.359Z,99234.38
2023-03-13T03:02:09.328Z,99239.88
2023-03-13T03:04:38.542Z,99233.97
2023-03-13T03:07:06.623Z,99237.28
2023-03-13T03:09:35.005Z,99228.56
2023-03-13T03:12:08.529Z,99222.38
2023-03-13T03:14:37.979Z,99224.22
2023-03-13T03:17:06.812Z,99224.38
2023-03-13T03:19:34.675Z,99211.41
2023-03-13T03:22:02.827Z,99218.94
2023-03-13T03:24:30.759Z,99224.94
2023-03-13T03:26:58.745Z,99212.94
2023-03-13T03:29:32.028Z,99213.72
2023-03-13T03:32:02.194Z,99200.56
2023-03-13T03:34:31.057Z,99199.00
2023-03-13T03:36:59.776Z,99197.38
2023-03-13T03:39:29.466Z,99188.81
2023-03-13T03:41:57.448Z,99183.47
2023-03-13T03:44:26.223Z,99180.84
2023-03-13T03:46:56.466Z,99168.91
2023-03-13T03:49:27.821Z,99165.25
2023-03-13T03:51:56.389Z,99149.09
2023-03-13T03:55:14.104Z,99134.09
2023-03-13T03:57:42.106Z,99139.56
2023-03-13T04:00:16.397Z,99124.28
2023-03-13T04:02:50.598Z,99118.09
2023-03-13T04:05:20.882Z,99101.97
2023-03-13T04:07:49.443Z,99098.22
2023-03-13T04:10:18.113Z,99090.78
2023-03-13T04:12:47.229Z,99081.22
2023-03-13T04:15:15.810Z,99070.81
2023-03-13T04:17:43.919Z,99069.28
2023-03-13T04:20:14.293Z,99071.91
2023-03-13T04:22:44.186Z,99058.84
2023-03-13T04:25:13.002Z,99050.28
2023-03-13T04:27:41.561Z,99045.19
2023-03-13T04:30:11.539Z,99033.59
2023-03-13T04:32:39.608Z,99027.72
2023-03-13T04:35:43.282Z,99007.06
2023-03-13T04:38:42.024Z,99000.91
2023-03-13T04:41:28.858Z,98995.16
2023-03-13T04:44:17.530Z,98980.94
2023-03-13T04:47:04.566Z,98975.91
2023-03-13T04:49:55.338Z,98968.22
2023-03-13T04:52:35.639Z,98960.25
2023-03-13T04:55:23.229Z,98956.16
2023-03-13T04:58:14.136Z,98939.69
2023-03-13T05:00:47.046Z,98932.78
2023-03-13T05:03:33.826Z,98912.09
2023-03-13T05:06:13.606Z,98906.88
2023-03-13T05:09:00.229Z,98904.25
2023-03-13T05:11:56.481Z,98885.19
2023-03-13T05:14:32.825Z,98874.13
2023-03-13T05:17:21.038Z,98866.28
2023-03-13T05:19:51.666Z,98863.72
2023-03-13T05:22:30.369Z,98851.47
2023-03-13T05:25:19.450Z,98842.09
2023-03-13T05:28:03.378Z,98835.09
2023-03-13T05:30:54.228Z,98828.13
2023-03-13T05:33:32.993Z,98827.19
2023-03-13T05:36:23.788Z,98808.22
2023-03-13T05:39:12.118Z,98797.91
2023-03-13T05:41:48.833Z,98802.25
2023-03-13T05:44:44.355Z,98787.44
2023-03-13T05:47:39.699Z,98777.13
2023-03-13T05:50:23.659Z,98762.28
2023-03-13T05:53:09.378Z,98757.78
2023-03-13T05:56:07.034Z,98749.91
2023-03-13T05:58:57.816Z,98746.28
2023-03-13T06:01:50.108Z,98737.53
2023-03-13T06:04:27.513Z,98737.72
2023-03-13T06:06:55.658Z,98727.63
2023-03-13T06:09:24.578Z,98719.69
2023-03-13T06:11:54.295Z,98718.66
2023-03-13T06:14:22.344Z,98713.41
2023-03-13T06:17:10.578Z,98713.66
2023-03-13T06:19:38.539Z,98710.88
2023-03-13T06:22:06.811Z,98697.97
2023-03-13T06:24:34.956Z,98695.44
2023-03-13T06:27:02.856Z,98683.63
2023-03-13T06:29:30.988Z,98676.63
2023-03-13T06:31:59.097Z,98676.28
2023-03-13T06:34:28.503Z,98664.16
2023-03-13T06:36:58.537Z,98659.72
2023-03-13T06:39:26.475Z,98651.22
2023-03-13T06:41:54.525Z,98646.16
2023-03-13T06:44:22.504Z,98659.16
2023-03-13T06:46:51.105Z,98629.53
2023-03-13T06:49:19.192Z,98613.84
2023-03-13T06:51:49.081Z,98619.00
2023-03-13T06:54:17.240Z,98620.00
2023-03-13T06:56:45.239Z,98621.66
2023-03-13T06:59:13.309Z,98623.91
2023-03-13T07:01:41.272Z,98618.91
2023-03-13T07:04:17.037Z,98603.16
2023-03-13T07:06:46.099Z,98598.88
2023-03-13T07:09:15.444Z,98585.81
2023-03-13T07:11:43.522Z,98567.63
2023-03-13T07:14:17.036Z,98548.09
2023-03-13T07:16:46.183Z,98532.41
2023-03-13T07:19:15.259Z,98532.03
2023-03-13T07:21:44.116Z,98536.19
2023-03-13T07:24:12.192Z,98527.81
2023-03-13T07:26:51.251Z,98514.19
2023-03-13T07:29:28.836Z,98506.72
2023-03-13T07:31:57.200Z,98489.91
2023-03-13T07:34:25.126Z,98489.34
2023-03-13T07:36:53.035Z,98503.88
2023-03-13T07:39:20.966Z,98495.22
2023-03-13T07:41:50.250Z,98483.28
2023-03-13T07:44:18.644Z,98474.56
2023-03-13T07:46:48.463Z,98462.47
2023-03-13T07:49:16.472Z,98438.78
2023-03-13T07:51:47.637Z,98447.50
2023-03-13T07:54:15.612Z,98432.19
2023-03-13T07:56:43.540Z,98432.78
2023-03-13T07:59:12.884Z,98426.34
2023-03-13T08:01:40.858Z,98415.09
2023-03-13T08:04:11.464Z,98396.94
2023-03-13T08:06:41.128Z,98388.91
2023-03-13T08:09:09.872Z,98390.19
2023-03-13T08:11:40.414Z,98375.16
2023-03-13T08:14:08.764Z,98371.44
2023-03-13T08:16:38.108Z,98372.88
2023-03-13T08:19:06.456Z,98375.41
2023-03-13T08:21:36.147Z,98377.56
2023-03-13T08:24:06.929Z,98355.16
2023-03-13T08:26:36.496Z,98342.56
2023-03-13T08:29:07.179Z,98345.09
2023-03-13T08:31:36.301Z,98337.19
2023-03-13T08:34:06.003Z,98355.06
2023-03-13T08:36:35.607Z,98349.03
2023-03-13T08:39:05.901Z,98341.94
2023-03-13T08:41:36.172Z,98325.34
2023-03-13T08:44:05.128Z,98314.88
2023-03-13T08:46:34.952Z,98327.88
2023-03-13T08:49:05.170Z,98323.22
2023-03-13T08:51:33.459Z,98314.94
2023-03-13T08:54:02.295Z,98299.75
2023-03-13T08:56:33.057Z,98312.88
2023-03-13T08:59:02.768Z,98289.66
2023-03-13T09:01:33.332Z,98298.84
2023-03-13T09:04:04.226Z,98292.63
2023-03-13T09:06:34.547Z,98282.72
2023-03-13T09:09:02.847Z,98270.22
2023-03-13T09:11:31.068Z,98264.94
2023-03-13T09:14:00.247Z,98266.84
2023-03-13T09:16:30.136Z,98255.66
2023-03-13T09:18:59.576Z,98250.16
2023-03-13T09:21:28.934Z,98241.50
2023-03-13T09:23:59.024Z,98245.00
2023-03-13T09:26:27.803Z,98220.03
2023-03-13T09:28:56.637Z,98231.22
2023-03-13T09:31:26.043Z,98230.53
2023-03-13T09:33:54.573Z,98222.50
2023-03-13T09:36:23.976Z,98204.13
2023-03-13T09:38:52.746Z,98210.00
2023-03-13T09:41:28.473Z,98202.88
2023-03-13T09:44:01.845Z,98200.00
2023-03-13T09:46:36.635Z,98201.34
2023-03-13T09:49:06.873Z,98197.91
2023-03-13T09:51:37.355Z,98191.91
2023-03-13T09:54:08.855Z,98191.09
2023-03-13T09:56:41.820Z,98188.06
2023-03-13T09:59:13.311Z,98189.09
2023-03-13T10:01:42.551Z,98186.13
2023-03-13T10:04:25.496Z,98171.16
2023-03-13T10:06:54.400Z,98164.78
2023-03-13T10:09:26.254Z,98164.13
2023-03-13T10:12:00.725Z,98168.97
2023-03-13T10:14:32.240Z,98173.56
2023-03-13T10:17:06.304Z,98155.22
2023-03-13T10:19:38.618Z,98165.50
2023-03-13T10:22:13.659Z,98157.81
2023-03-13T10:24:46.542Z,98178.44
2023-03-13T10:27:17.025Z,98174.34
2023-03-13T10:29:45.098Z,98169.47
2023-03-13T10:32:16.042Z,98172.22
2023-03-13T10:34:52.071Z,98177.13
2023-03-13T10:37:23.664Z,98181.09
2023-03-13T10:39:53.309Z,98186.22
2023-03-13T10:42:33.501Z,98176.66
2023-03-13T10:45:02.098Z,98175.91
2023-03-13T10:47:34.546Z,98177.56
2023-03-13T10:50:04.198Z,98174.84
2023-03-13T10:52:35.484Z,98168.72
2023-03-13T10:55:05.827Z,98176.53
2023-03-13T10:57:35.824Z,98174.59
2023-03-13T11:00:11.378Z,98170.63
2023-03-13T11:02:40.305Z,98164.53
2023-03-13T11:05:34.345Z,98159.28
2023-03-13T11:08:21.361Z,98149.81
2023-03-13T11:10:56.989Z,98146.31
2023-03-13T11:13:37.839Z,98150.25
2023-03-13T11:16:16.298Z,98145.88
2023-03-13T11:19:05.904Z,98153.56
2023-03-13T11:21:39.819Z,98160.13
2023-03-13T11:24:11.595Z,98139.16
2023-03-13T11:26:49.701Z,98154.97
2023-03-13T11:29:28.811Z,98157.03
2023-03-13T11:31:59.498Z,98155.00
2023-03-13T11:34:32.505Z,98138.97
2023-03-13T11:37:02.490Z,98146.34
2023-03-13T11:39:55.740Z,98141.78
2023-03-13T11:42:41.724Z,98150.50
2023-03-13T11:45:23.052Z,98156.72
2023-03-13T11:47:55.581Z,98160.81
2023-03-13T11:50:35.884Z,98157.69
2023-03-13T11:53:16.301Z,98166.84
2023-03-13T11:56:04.910Z,98172.13
2023-03-13T11:59:08.442Z,98170.63
2023-03-13T12:01:41.120Z,98184.69
2023-03-13T12:04:15.850Z,98194.88
2023-03-13T12:06:46.057Z,98205.91
2023-03-13T12:09:16.987Z,98210.25
2023-03-13T12:11:53.197Z,98230.22
2023-03-13T12:14:25.975Z,98236.97
2023-03-13T12:16:58.505Z,98265.53
2023-03-13T12:19:31.813Z,98279.59
2023-03-13T12:22:04.951Z,98325.00
2023-03-13T12:24:35.622Z,98362.00
2023-03-13T12:27:07.315Z,98390.69
2023-03-13T12:29:43.180Z,98422.66
2023-03-13T12:32:16.170Z,98475.81
2023-03-13T12:34:53.601Z,98552.69
2023-03-13T12:37:27.659Z,98588.13
2023-03-13T12:39:59.288Z,98631.69
2023-03-13T12:42:38.754Z,98663.00
2023-03-13T12:45:08.906Z,98681.47
2023-03-13T12:47:54.778Z,98690.25
2023-03-13T12:50:33.179Z,98696.00
2023-03-13T12:53:31.574Z,98693.25
2023-03-13T12:56:10.436Z,98749.47
2023-03-13T12:58:46.155Z,98747.16
2023-03-13T13:01:18.422Z,98740.09
2023-03-13T13:03:52.326Z,98719.31
2023-03-13T13:06:20.518Z,98721.56
2023-03-13T13:08:50.626Z,98735.03
2023-03-13T13:11:49.845Z,98745.03
2023-03-13T13:15:03.955Z,98739.09
2023-03-13T13:17:36.734Z,98734.78
2023-03-13T13:20:33.610Z,98741.91
2023-03-13T13:23:34.920Z,98724.91
2023-03-13T13:26:45.955Z,98722.41
2023-03-13T13:29:56.803Z,98749.41
2023-03-13T13:32:42.205Z,98743.69
2023-03-13T13:35:33.668Z,98752.06
2023-03-13T13:38:36.899Z,98748.38
2023-03-13T13:41:21.859Z,98740.63
2023-03-13T13:43:51.494Z,98718.13
2023-03-13T13:46:28.755Z,98721.69
2023-03-13T13:49:15.318Z,98712.44
2023-03-13T13:52:23.428Z,98715.28
2023-03-13T13:54:56.753Z,98711.59
2023-03-13T13:57:26.417Z,98715.44
2023-03-13T13:59:57.716Z,98787.03
2023-03-13T14:02:26.895Z,98730.13
2023-03-13T14:04:57.964Z,98758.88
2023-03-13T14:07:32.067Z,98744.88
2023-03-13T14:10:04.906Z,98745.13
2023-03-13T14:12:33.415Z,98752.31
2023-03-13T14:15:10.059Z,98749.63
2023-03-13T14:17:42.791Z,98748.75
2023-03-13T14:20:33.760Z,98751.03
2023-03-13T14:23:04.699Z,98736.84
2023-03-13T14:25:44.271Z,98750.00
2023-03-13T14:28:21.137Z,98758.47
2023-03-13T14:30:50.926Z,98736.84
2023-03-13T14:33:19.180Z,98708.59
2023-03-13T14:35:47.624Z,98721.56
2023-03-13T14:38:22.659Z,98725.56
2023-03-13T14:40:51.611Z,98734.16
2023-03-13T14:43:32.356Z,98739.75
2023-03-13T14:46:00.845Z,98746.19
2023-03-13T14:48:31.824Z,98739.03
2023-03-13T14:51:14.677Z,98745.94
2023-03-13T14:53:56.609Z,98740.94
2023-03-13T14:56:33.383Z,98738.84
2023-03-13T14:59:09.567Z,98761.00
2023-03-13T15:01:37.732Z,98747.28
2023-03-13T15:04:06.090Z,98732.97
2023-03-13T15:06:34.063Z,98740.84
2023-03-13T15:09:24.182Z,98767.44
2023-03-13T15:11:57.822Z,98745.31
2023-03-13T15:14:40.217Z,98734.38
2023-03-13T15:17:15.407Z,98737.53
2023-03-13T15:19:43.816Z,98720.97
2023-03-13T15:22:16.236Z,98725.13
2023-03-13T15:24:59.616Z,98723.25
2023-03-13T15:27:33.716Z,98721.16
2023-03-13T15:30:01.835Z,98704.97
2023-03-13T15:32:32.446Z,98711.75
2023-03-13T15:35:02.062Z,98703.03
2023-03-13T15:37:31.131Z,98716.03
2023-03-13T15:40:00.598Z,98700.16
2023-03-13T15:42:28.780Z,98698.94
2023-03-13T15:44:56.817Z,98693.53
2023-03-13T15:47:24.912Z,98701.75
2023-03-13T15:49:53.105Z,98688.81
2023-03-13T15:52:23.544Z,98668.44
2023-03-13T15:54:52.431Z,98682.03
2023-03-13T15:57:24.370Z,98675.72
2023-03-13T15:59:53.212Z,98686.22
2023-03-13T16:02:23.320Z,98677.28
2023-03-13T16:04:52.017Z,98676.13
2023-03-13T16:07:21.862Z,98677.78
2023-03-13T16:09:50.301Z,98676.97
2023-03-13T16:12:18.419Z,98672.41
2023-03-13T16:14:47.810Z,98669.91
2023-03-13T16:17:17.848Z,98678.75
2023-03-13T16:19:46.839Z,98670.63
2023-03-13T16:22:14.999Z,98671.38
2023-03-13T16:24:43.415Z,98661.84
2023-03-13T16:27:14.238Z,98654.56
2023-03-13T16:29:42.291Z,98663.63
2023-03-13T16:32:14.020Z,98640.97
2023-03-13T16:34:43.191Z,98656.19
2023-03-13T16:37:13.922Z,98638.81
2023-03-13T16:39:42.443Z,98636.81
2023-03-13T16:42:11.007Z,98647.69
2023-03-13T16:44:41.888Z,98640.97
2023-03-13T16:47:26.380Z,98645.28
2023-03-13T16:49:54.423Z,98637.97
2023-03-13T16:52:22.374Z,98630.94
2023-03-13T16:54:51.196Z,98635.47
2023-03-13T16:57:24.000Z,98631.75
2023-03-13T16:59:52.807Z,98624.72
2023-03-13T17:02:22.270Z,98614.41
2023-03-13T17:04:50.382Z,98603.94
2023-03-13T17:07:20.746Z,98608.84
2023-03-13T17:09:49.052Z,98609.78
2023-03-13T17:12:17.723Z,98605.75
2023-03-13T17:14:46.623Z,98605.78
2023-03-13T17:17:16.989Z,98614.19
2023-03-13T17:19:46.913Z,98605.41
2023-03-13T17:22:16.982Z,98597.53
2023-03-13T17:24:45.355Z,98590.63
2023-03-13T17:27:14.789Z,98606.56
2023-03-13T17:29:43.343Z,98598.59
2023-03-13T17:32:15.503Z,98592.88
2023-03-13T17:34:46.704Z,98603.94
2023-03-13T17:37:17.056Z,98601.47
2023-03-13T17:39:45.652Z,98609.19
2023-03-13T17:42:14.692Z,98602.19
2023-03-13T17:44:42.843Z,98590.75
2023-03-13T17:47:15.426Z,98603.00
2023-03-13T17:49:43.607Z,98604.44
2023-03-13T17:52:15.933Z,98604.78
2023-03-13T17:54:44.598Z,98590.88
2023-03-13T17:57:16.293Z,98600.53
2023-03-13T17:59:44.617Z,98598.38
2023-03-13T18:02:13.541Z,98607.53
2023-03-13T18:04:42.174Z,98613.25
2023-03-13T18:07:23.056Z,98603.25
2023-03-13T18:09:51.206Z,98605.41
2023-03-13T18:12:19.647Z,98606.22
2023-03-13T18:14:47.812Z,98620.47
2023-03-13T18:17:17.352Z,98617.63
2023-03-13T18:19:45.480Z,98632.94
2023-03-13T18:22:15.072Z,98624.28
2023-03-13T18:24:44.712Z,98621.69
2023-03-13T18:27:14.462Z,98623.69
2023-03-13T18:29:43.242Z,98614.31
2023-03-13T18:32:12.229Z,98623.72
2023-03-13T18:34:40.373Z,98630.22
2023-03-13T18:37:19.435Z,98616.44
2023-03-13T18:39:50.025Z,98612.28
2023-03-13T18:42:18.224Z,98609.66
2023-03-13T18:44:46.228Z,98614.06
2023-03-13T18:47:15.431Z,98612.03
2023-03-13T18:49:43.760Z,98609.41
2023-03-13T18:52:12.658Z,98609.41
2023-03-13T18:54:41.605Z,98596.56
2023-03-13T18:57:18.534Z,98599.78
2023-03-13T18:59:47.685Z,98592.16
2023-03-13T19:02:17.057Z,98588.75
2023-03-13T19:04:47.161Z,98589.78
2023-03-13T19:07:16.740Z,98592.16
2023-03-13T19:09:47.091Z,98590.03
2023-03-13T19:12:17.319Z,98595.97
2023-03-13T19:14:45.614Z,98589.78
2023-03-13T19:17:20.482Z,98593.59
2023-03-13T19:19:48.692Z,98593.50
2023-03-13T19:22:16.809Z,98586.69
2023-03-13T19:24:45.051Z,98604.28
2023-03-13T19:27:13.975Z,98597.72
2023-03-13T19:29:43.884Z,98592.75
2023-03-13T19:32:15.296Z,98596.78
2023-03-13T19:34:43.559Z,98607.00
2023-03-13T19:37:15.302Z,98624.81
2023-03-13T19:39:44.234Z,98618.00
2023-03-13T19:42:13.390Z,98621.06
2023-03-13T19:44:42.107Z,98609.34
2023-03-13T19:47:14.931Z,98624.19
2023-03-13T19:49:43.232Z,98620.72
2023-03-13T19:52:11.458Z,98630.09
2023-03-13T19:54:39.946Z,98630.59
2023-03-13T19:57:11.413Z,98632.84
2023-03-13T19:59:40.217Z,98643.41
2023-03-13T20:02:09.992Z,98654.50
2023-03-13T20:04:41.140Z,98660.78
2023-03-13T20:07:09.284Z,98681.72
2023-03-13T20:09:37.560Z,98685.78
2023-03-13T20:12:06.329Z,98706.53
2023-03-13T20:14:34.484Z,98703.06
2023-03-13T20:17:03.487Z,98683.84
2023-03-13T20:19:31.628Z,98686.16
2023-03-13T20:22:04.599Z,98667.50
2023-03-13T20:24:34.284Z,98675.13
2023-03-13T20:27:02.454Z,98675.88
2023-03-13T20:29:30.607Z,98666.53
2023-03-13T20:32:00.511Z,98661.81
2023-03-13T20:34:28.852Z,98653.78
2023-03-13T20:36:59.124Z,98653.78
2023-03-13T20:39:28.903Z,98657.09
2023-03-13T20:41:57.539Z,98660.13
2023-03-13T20:44:26.685Z,98651.34
2023-03-13T20:46:54.709Z,98653.66
2023-03-13T20:49:22.677Z,98648.00
2023-03-13T20:51:50.764Z,98655.66
2023-03-13T20:54:19.468Z,98643.53
2023-03-13T20:56:48.962Z,98640.41
2023-03-13T20:59:17.122Z,98630.00
2023-03-13T21:01:45.325Z,98638.66
2023-03-13T21:04:13.758Z,98638.88
2023-03-13T21:06:42.202Z,98647.56
2023-03-13T21:09:10.392Z,98645.97
2023-03-13T21:11:40.083Z,98638.16
2023-03-13T21:14:10.119Z,98632.63
2023-03-13T21:16:38.645Z,98636.09
2023-03-13T21:19:06.773Z,98637.44
2023-03-13T21:21:37.453Z,98629.78
2023-03-13T21:24:06.049Z,98646.75
2023-03-13T21:26:34.230Z,98648.59
2023-03-13T21:29:02.350Z,98654.06
2023-03-13T21:31:31.909Z,98646.75
2023-03-13T21:33:59.863Z,98649.38
2023-03-13T21:36:27.981Z,98642.91
2023-03-13T21:38:56.412Z,98651.56
2023-03-13T21:41:24.408Z,98653.19
2023-03-13T21:43:53.025Z,98657.50
2023-03-13T21:46:22.701Z,98653.56
2023-03-13T21:48:52.059Z,98656.78
2023-03-13T21:51:20.132Z,98659.03
2023-03-13T21:53:48.331Z,98655.66
2023-03-13T21:56:17.356Z,98654.66
2023-03-13T21:58:46.405Z,98651.09
2023-03-13T22:01:14.980Z,98639.94
2023-03-13T22:03:43.224Z,98638.38
2023-03-13T22:06:17.083Z,98632.06
2023-03-13T22:08:45.383Z,98644.66
2023-03-13T22:11:13.521Z,98640.28
2023-03-13T22:13:41.620Z,98644.28
2023-03-13T22:16:10.433Z,98647.38
2023-03-13T22:18:38.970Z,98641.34
2023-03-13T22:21:07.231Z,98639.97
2023-03-13T22:23:36.666Z,98638.25
2023-03-13T22:26:04.774Z,98638.81
2023-03-13T22:28:32.848Z,98636.00
2023-03-13T22:31:01.675Z,98643.50
2023-03-13T22:33:29.699Z,98657.56
2023-03-13T22:35:57.765Z,98663.78
2023-03-13T22:38:25.898Z,98664.72
2023-03-13T22:41:00.270Z,98655.16
2023-03-13T22:43:28.835Z,98663.88
2023-03-13T22:45:57.332Z,98657.03
2023-03-13T22:48:25.604Z,98654.91
2023-03-13T22:51:00.524Z,98648.09
2023-03-13T22:53:28.567Z,98640.97
2023-03-13T22:55:57.993Z,98636.50
2023-03-13T22:58:26.268Z,98637.34
2023-03-13T23:00:54.842Z,98624.75
2023-03-13T23:03:23.254Z,98626.94
2023-03-13T23:05:51.476Z,98623.44
2023-03-13T23:08:19.890Z,98626.41
2023-03-13T23:10:48.691Z,98608.41
2023-03-13T23:13:18.359Z,98605.50
2023-03-13T23:16:01.489Z,98595.22
2023-03-13T23:18:29.451Z,98584.34
2023-03-13T23:20:57.432Z,98571.19
2023-03-13T23:23:25.707Z,98549.00
2023-03-13T23:25:53.809Z,98522.81
2023-03-13T23:28:23.216Z,98493.69
2023-03-13T23:30:51.285Z,98473.06
2023-03-13T23:33:19.430Z,98442.94
2023-03-13T23:35:47.482Z,98413.91
2023-03-13T23:38:18.371Z,98385.88
2023-03-13T23:40:46.406Z,98365.09
2023-03-13T23:43:14.406Z,98347.91
2023-03-13T23:45:43.711Z,98327.53
2023-03-13T23:48:11.686Z,98320.09
2023-03-13T23:50:39.708Z,98305.63
2023-03-13T23:53:07.681Z,98293.03
2023-03-13T23:55:35.634Z,98279.34
2023-03-13T23:58:03.671Z,98284.84
